Latest Coastal Weather Observations for Cape Jaffa

IDS60701

Issued at 1:11 pm CST Tuesday 28 June 2016 (issued every 10 minutes, with the page automatically refreshed every 10 minutes)

About coastal observations | Map of coastal stations | Coastal observations for SA | Marine services | Other Formats
Station Details ID: 026095 Name: THE LIMESTONE Lat: -36.97 Lon: 139.72 Height: 17.0 m
Data from the previous 72 hours. | See also: Recent months at Cape Jaffa
Date/Time
CST
Temp
°C
Wind Pressure Rain since
9am
mm
Weather Cloud Vis
km
Sea
Height
m
Swell
Dir  Spd
kts
Gust
kts
hPa Trend Height
m
Period
s
Dir
28/01:00pm 15.0 NW 12 16 1023.9 - 0.6 - - - - - - -
28/12:30pm 15.3 NW 13 16 1024.0 - 0.4 - - - - - - -
28/12:00pm 15.6 NW 12 15 1024.1 - 0.4 - - - - - - -
28/11:30am 15.9 NW 12 16 1024.2 - 0.4 - - - - - - -
28/11:00am 15.5 NW 12 18 1024.4 - 0.4 - - - - - - -
28/10:30am 15.2 NW 11 16 1024.5 - 0.4 - - - - - - -
28/10:00am 13.7 WNW 12 18 1024.4 - 0.4 - - - - - - -
28/09:30am 14.6 NW 12 17 1024.1 - 0.4 - - - - - - -
28/09:00am 14.6 NW 12 16 1023.9 - 1.2 - - - - - - -
28/08:30am 13.9 NW 11 15 1023.5 - 1.2 - - - - - - -
28/08:00am 12.7 NNW 9 11 1023.1 - 1.2 - - - - - - -
28/07:30am 12.5 NW 10 13 1022.9 - 1.2 - - - - - - -
28/07:00am 12.8 NNW 7 10 1022.6 - 1.0 - - - - - - -
28/06:30am 12.9 NW 9 12 1022.2 - 0.6 - - - - - - -
28/06:00am 13.2 NW 9 13 1021.9 - 0.6 - - - - - - -
28/05:30am 12.8 NW 8 11 1021.7 - 0.6 - - - - - - -
28/05:00am 12.6 NW 8 11 1021.4 - 0.6 - - - - - - -
28/04:30am 12.5 NW 9 13 1021.1 - 0.6 - - - - - - -
28/04:00am 12.7 NW 8 11 1021.0 - 0.6 - - - - - - -
28/03:30am 12.3 NW 9 14 1021.0 - 0.6 - - - - - - -
28/03:00am 12.6 NW 11 15 1021.2 - 0.6 - - - - - - -
28/02:30am 12.6 NW 12 16 1021.4 - 0.6 - - - - - - -
28/02:00am 13.0 NW 12 18 1021.2 - 0.6 - - - - - - -
28/01:30am 12.7 WNW 9 13 1021.2 - 0.6 - - - - - - -
28/01:00am 13.0 NW 10 15 1021.2 - 0.0 - - - - - - -
28/12:30am 11.7 NNW 8 10 1021.3 - 0.0 - - - - - - -
28/12:00am 12.2 NW 11 14 1021.4 - 0.0 - - - - - - -
 
Date/Time
CST
Temp
°C
Wind Pressure Rain since
9am
mm
Weather Cloud Vis
km
Sea
Height
m
Swell
Dir  Spd
kts
Gust
kts
hPa Trend Height
m
Period
s
Dir
27/11:30pm 12.2 NW 8 11 1021.3 - 0.0 - - - - - - -
27/11:00pm 12.4 WNW 9 13 1021.3 - 0.0 - - - - - - -
27/10:30pm 13.0 WNW 11 15 1021.3 - 0.0 - - - - - - -
27/10:00pm 12.8 WNW 9 14 1021.1 - 0.0 - - - - - - -
27/09:30pm 12.0 NW 6 8 1021.2 - 0.0 - - - - - - -
27/09:00pm 12.5 NW 8 14 1021.2 - 0.0 - - - - - - -
27/08:30pm 12.5 NW 8 10 1021.0 - 0.0 - - - - - - -
27/08:00pm 12.4 WNW 7 10 1020.9 - 0.0 - - - - - - -
27/07:30pm 12.4 WNW 7 10 1020.7 - 0.0 - - - - - - -
27/07:00pm 12.1 WNW 9 12 1020.6 - 0.0 - - - - - - -
27/06:30pm 12.1 NW 7 10 1020.3 - 0.0 - - - - - - -
27/06:00pm 11.8 NW 6 8 1020.1 - 0.0 - - - - - - -
27/05:30pm 12.3 WNW 7 10 1019.7 - 0.0 - - - - - - -
27/05:00pm 12.5 NW 7 9 1019.6 - 0.0 - - - - - - -
27/04:30pm 13.3 NW 5 7 1019.4 - 0.0 - - - - - - -
27/04:00pm 13.7 WNW 6 8 1019.4 - 0.0 - - - - - - -
27/03:30pm 14.0 W 8 11 1019.3 - 0.0 - - - - - - -
27/03:00pm 14.3 W 9 11 1019.1 - 0.0 - - - - - - -
27/02:30pm 13.8 W 10 13 1019.0 - 0.0 - - - - - - -
27/02:00pm 14.1 W 10 13 1018.8 - 0.0 - - - - - - -
27/01:30pm 14.6 W 10 13 1018.8 - 0.0 - - - - - - -
27/01:00pm 14.6 W 10 12 1018.8 - 0.0 - - - - - - -
27/12:30pm 14.3 W 12 15 1019.0 - 0.0 - - - - - - -
27/12:00pm 14.7 W 9 13 1019.2 - 0.0 - - - - - - -
27/11:30am 13.6 SW 8 11 1019.6 - 0.0 - - - - - - -
27/11:00am 12.9 W 12 16 1019.6 - 0.0 - - - - - - -
27/10:30am 14.0 WSW 6 8 1019.4 - 0.0 - - - - - - -
27/10:00am 12.2 SW 4 5 1019.5 - 0.0 - - - - - - -
27/09:30am 11.5 WSW 14 18 1019.3 - 0.0 - - - - - - -
27/09:25am 11.9 SW 11 18 1019.2 - 0.0 - - - - - - -
27/09:00am 12.1 SW 4 6 1018.8 - 3.4 - - - - - - -
27/08:30am 10.7 SSW 3 6 1018.6 - 3.4 - - - - - - -
27/08:00am 9.8 SSW 6 8 1018.2 - 3.4 - - - - - - -
27/07:30am 9.3 SSW 7 8 1017.9 - 3.4 - - - - - - -
27/07:00am 9.8 SSW 9 10 1017.4 - 3.4 - - - - - - -
27/06:30am 10.2 SSW 11 13 1017.2 - 3.4 - - - - - - -
27/06:00am 10.4 SSW 11 13 1016.8 - 3.4 - - - - - - -
27/05:30am 10.8 SSW 12 14 1016.4 - 3.4 - - - - - - -
27/05:00am 11.0 SSW 10 13 1015.9 - 3.4 - - - - - - -
27/04:30am 10.7 SSW 10 13 1015.6 - 3.4 - - - - - - -
27/04:00am 11.2 SW 13 16 1015.3 - 3.4 - - - - - - -
27/03:30am 11.2 S 8 13 1015.2 - 3.4 - - - - - - -
27/03:00am 11.2 SSW 9 14 1015.2 - 3.4 Rain - - - - - -
27/02:30am 10.9 SW 6 12 1015.0 - 3.0 - - - - - - -
27/02:00am 10.6 NNW 3 7 1015.1 - 2.4 - - - - - - -
27/01:30am 10.7 NW 9 12 1015.0 - 1.8 - - - - - - -
27/01:00am 10.9 NW 9 11 1014.9 - 1.8 - - - - - - -
27/12:30am 10.2 NW 11 15 1015.1 - 1.4 - - - - - - -
27/12:00am 11.2 WNW 11 14 1015.1 - 1.2 Rain - - - - - -
 
Date/Time
CST
Temp
°C
Wind Pressure Rain since
9am
mm
Weather Cloud Vis
km
Sea
Height
m
Swell
Dir  Spd
kts
Gust
kts
hPa Trend Height
m
Period
s
Dir
26/11:30pm 12.2 NNW 10 13 1015.1 - 0.0 - - - - - - -
26/11:00pm 12.1 NNW 12 15 1014.9 - 0.0 - - - - - - -
26/10:30pm 11.8 NNW 12 15 1014.9 - 0.0 - - - - - - -
26/10:00pm 12.2 NNW 11 14 1015.0 - 0.0 - - - - - - -
26/09:30pm 11.9 NNW 10 13 1014.9 - 0.0 - - - - - - -
26/09:00pm 11.9 NNW 10 13 1014.8 - 0.0 - - - - - - -
26/08:30pm 11.9 NNW 12 15 1015.0 - 0.0 - - - - - - -
26/08:00pm 12.1 NNW 12 16 1015.0 - 0.0 - - - - - - -
26/07:30pm 12.0 NNW 12 15 1015.0 - 0.0 - - - - - - -
26/07:00pm 12.1 NNW 12 15 1015.0 - 0.0 - - - - - - -
26/06:30pm 11.6 N 12 17 1014.8 - 0.0 - - - - - - -
26/06:00pm 11.8 NNW 14 18 1014.8 - 0.0 - - - - - - -
26/05:30pm 11.6 NNW 14 19 1014.5 - 0.0 - - - - - - -
26/05:00pm 11.3 N 12 16 1014.5 - 0.0 - - - - - - -
26/04:30pm 11.8 NNW 12 17 1014.5 - 0.0 - - - - - - -
26/04:00pm 12.0 NNW 14 18 1014.3 - 0.0 - - - - - - -
26/03:30pm 11.9 N 16 20 1014.4 - 0.0 - - - - - - -
26/03:00pm 11.7 N 15 19 1014.4 - 0.0 - - - - - - -
26/02:30pm 12.2 N 16 21 1014.5 - 0.0 - - - - - - -
26/02:00pm 12.3 N 15 19 1014.6 - 0.0 - - - - - - -
26/01:30pm 12.8 N 16 20 1014.8 - 0.0 - - - - - - -
26/01:00pm 12.1 N 17 20 1015.1 - 0.0 - - - - - - -
26/12:30pm 12.5 N 15 19 1015.5 - 0.0 - - - - - - -
26/12:00pm 12.0 N 17 21 1016.1 - 0.0 - - - - - - -
26/11:30am 11.4 N 17 22 1016.5 - 0.0 - - - - - - -
26/11:00am 11.2 N 18 23 1016.8 - 0.0 - - - - - - -
26/10:30am 11.0 N 18 24 1017.0 - 0.0 - - - - - - -
26/10:00am 10.8 N 16 20 1017.3 - 0.0 - - - - - - -
26/09:30am 10.4 N 16 21 1017.2 - 0.0 - - - - - - -
26/09:00am 10.0 N 15 20 1017.2 - 0.0 - - - - - - -
26/08:30am 9.9 N 15 19 1017.0 - 0.0 - - - - - - -
26/08:00am 9.9 NNE 14 18 1017.1 - 0.0 - - - - - - -
26/07:30am 9.6 NNE 13 18 1017.3 - 0.0 - - - - - - -
26/07:00am 9.7 N 15 20 1017.2 - 0.0 - - - - - - -
26/06:30am 9.8 N 18 22 1017.3 - 0.0 - - - - - - -
26/06:00am 9.8 N 17 21 1017.7 - 0.0 - - - - - - -
26/05:30am 9.7 N 16 21 1017.7 - 0.0 - - - - - - -
26/05:00am 9.6 NNE 15 20 1017.6 - 0.0 - - - - - - -
26/04:30am 9.0 NNE 14 17 1017.7 - 0.0 - - - - - - -
26/04:00am 9.1 NNE 15 20 1017.9 - 0.0 - - - - - - -
26/03:30am 8.7 NNE 13 18 1018.2 - 0.0 - - - - - - -
26/03:00am 8.9 NNE 14 20 1018.6 - 0.0 - - - - - - -
26/02:30am 9.1 NNE 15 19 1018.8 - 0.0 - - - - - - -
26/02:00am 9.2 N 14 18 1019.1 - 0.0 - - - - - - -
26/01:30am 9.5 NNE 14 18 1019.2 - 0.0 - - - - - - -
26/01:00am 9.9 N 14 19 1019.5 - 0.0 - - - - - - -
26/12:30am 10.0 NNE 13 17 1019.6 - 0.0 - - - - - - -
26/12:00am 9.0 NNE 10 13 1019.8 - 0.0 - - - - - - -
 
Date/Time
CST
Temp
°C
Wind Pressure Rain since
9am
mm
Weather Cloud Vis
km
Sea
Height
m
Swell
Dir  Spd
kts
Gust
kts
hPa Trend Height
m
Period
s
Dir
25/11:30pm 8.5 NNE 9 11 1019.9 - 0.0 - - - - - - -
25/11:00pm 7.6 NE 7 9 1019.8 - 0.0 - - - - - - -
25/10:30pm 9.3 NNE 10 12 1020.2 - 0.0 - - - - - - -
25/10:00pm 9.6 NNE 11 15 1020.5 - 0.0 - - - - - - -
25/09:30pm 10.3 NNE 12 15 1020.8 - 0.0 - - - - - - -
25/09:00pm 10.5 NNE 11 14 1021.3 - 0.0 - - - - - - -
25/08:30pm 10.4 NNE 8 11 1021.4 - 0.0 - - - - - - -
25/08:00pm 10.7 NNE 11 13 1021.3 - 0.0 - - - - - - -
25/07:30pm 10.6 NNE 10 13 1021.5 - 0.0 - - - - - - -
25/07:00pm 10.5 NNE 10 13 1021.6 - 0.0 - - - - - - -
25/06:30pm 10.2 NNE 9 11 1021.4 - 0.0 - - - - - - -
25/06:00pm 10.7 NNE 10 12 1021.2 - 0.0 - - - - - - -
25/05:30pm 11.0 NNE 10 13 1021.3 - 0.0 - - - - - - -
25/05:00pm 10.8 N 9 13 1021.4 - 0.0 - - - - - - -
25/04:30pm 11.2 N 10 12 1021.4 - 0.0 - - - - - - -
25/04:00pm 11.9 N 8 10 1021.7 - 0.0 - - - - - - -
25/03:30pm 11.8 N 11 14 1021.9 - 0.0 - - - - - - -
25/03:00pm 12.1 N 11 14 1021.9 - 0.0 - - - - - - -
25/02:30pm 12.2 N 12 15 1021.9 - 0.0 - - - - - - -
25/02:00pm 12.7 N 11 14 1022.1 - 0.0 - - - - - - -
25/01:30pm 12.3 N 13 15 1022.6 - 0.0 - - - - - - -

Other Formats:

Comma delimited format used in spreadsheet applications
http://www.bom.gov.au/fwo/IDS60701/IDS60701.94813.axf

JavaScript Object Notation format (JSON) in row-major order
http://www.bom.gov.au/fwo/IDS60701/IDS60701.94813.json